FW1442 Weather Reports


Display with metric or nautical units.
time (UTC)temp
F
wind
direction
speed
MPH
gust
MPH
rain 1hr
in
rain 24hr
in
rain mn
in
humidity
%
barometer
mb
20191017150903 65 0.0 0.0 0.00 0.00 0.00 47 1025.8
20191017145904 66 0.0 0.0 0.00 0.00 0.00 46 1025.8
20191017144905 67 0.0 0.0 0.00 0.00 0.00 44 1025.7
20191017143904 68 0.0 0.0 0.00 0.00 0.00 42 1025.7
20191017142904 69 0.0 0.0 0.00 0.00 0.00 41 1025.8
20191017141904 69 0.0 0.0 0.00 0.00 0.00 41 1025.7
20191017140904 70 0.0 0.0 0.00 0.00 0.00 41 1025.6
20191017135904 71 0.0 0.0 0.00 0.00 0.00 40 1025.7
20191017134905 70 0.0 0.0 0.00 0.00 0.00 43 1025.7
20191017133904 70 0.0 0.0 0.00 0.00 0.00 42 1025.6
20191017132904 69 0.0 0.0 0.00 0.00 0.00 42 1025.8
20191017131903 69 0.0 0.0 0.00 0.00 0.00 44 1025.8
20191017130904 69 0.0 0.0 0.00 0.00 0.00 43 1025.8
20191017125904 70 0.0 0.0 0.00 0.00 0.00 43 1025.7
20191017124904 70 0.0 0.0 0.00 0.00 0.00 44 1025.8
20191017123904 70 0.0 0.0 0.00 0.00 0.00 43 1025.8
20191017122904 70 0.0 0.0 0.00 0.00 0.00 42 1025.8
20191017121905 71 0.0 0.0 0.00 0.00 0.00 41 1025.9
20191017120904 73 0.0 0.0 0.00 0.00 0.00 40 1026.0
20191017115904 73 0.0 0.0 0.00 0.00 0.00 40 1026.0
20191017114904 72 0.0 0.0 0.00 0.00 0.00 41 1026.0
20191017113904 71 0.0 0.0 0.00 0.00 0.00 41 1026.1
20191017112905 72 0.0 0.0 0.00 0.00 0.00 40 1026.1
20191017111904 71 0.0 0.0 0.00 0.00 0.00 40 1026.1
20191017110904 73 0.0 0.0 0.00 0.00 0.00 40 1026.2
20191017105904 72 0.0 0.0 0.00 0.00 0.00 40 1026.1
20191017104904 71 0.0 0.0 0.00 0.00 0.00 42 1026.2
20191017103905 72 0.0 0.0 0.00 0.00 0.00 38 1026.1
20191017102904 71 0.0 0.0 0.00 0.00 0.00 40 1026.3
20191017101905 70 0.0 0.0 0.00 0.00 0.00 41 1026.3
20191017100904 72 0.0 0.0 0.00 0.00 0.00 41 1026.3
20191017095904 70 0.0 0.0 0.00 0.00 0.00 42 1026.5
20191017094905 69 0.0 0.0 0.00 0.00 0.00 45 1026.5
20191017093904 68 0.0 0.0 0.00 0.00 0.00 47 1026.6
20191017092904 66 0.0 0.0 0.00 0.00 0.00 49 1026.5
20191017091904 67 0.0 0.0 0.00 0.00 0.00 47 1026.5
20191017090904 65 0.0 0.0 0.00 0.00 0.00 52 1026.7
20191017085904 64 0.0 0.0 0.00 0.00 0.00 52 1026.7
20191017084904 65 0.0 0.0 0.00 0.00 0.00 50 1026.6
20191017083904 63 0.0 0.0 0.00 0.00 0.00 54 1026.6
20191017082904 62 0.0 0.0 0.00 0.00 0.00 56 1026.6
20191017081905 59 0.0 0.0 0.00 0.00 0.00 60 1026.7
20191017080904 57 0.0 0.0 0.00 0.00 0.00 64 1026.7
20191017075905 56 0.0 0.0 0.00 0.00 0.00 68 1026.7
20191017074904 55 0.0 0.0 0.00 0.00 0.00 68 1026.6
20191017073905 55 0.0 0.0 0.00 0.00 0.00 70 1026.6
20191017072905 54 0.0 0.0 0.00 0.00 0.00 70 1026.5
20191017071905 54 0.0 0.0 0.00 0.00 0.00 71 1026.5
20191017070905 53 0.0 0.0 0.00 0.00 0.00 72 1026.6
20191017065905 53 0.0 0.0 0.00 0.00 0.00 74 1026.4
20191017064904 53 0.0 0.0 0.00 0.00 0.00 74 1026.4
20191017063905 51 0.0 0.0 0.00 0.00 0.00 76 1026.3
20191017062905 51 0.0 0.0 0.00 0.00 0.00 77 1026.2
20191017061904 51 0.0 0.0 0.00 0.00 0.00 78 1026.3
20191017060905 51 0.0 0.0 0.00 0.00 0.00 79 1026.1
20191017055904 50 0.0 0.0 0.00 0.00 0.00 79 1026.1
20191017054904 50 0.0 0.0 0.00 0.00 0.00 79 1026.0
20191017053904 50 0.0 0.0 0.00 0.00 0.00 80 1025.8
20191017052904 50 0.0 0.0 0.00 0.00 0.00 78 1025.8
20191017051904 49 0.0 0.0 0.00 0.00 0.00 80 1025.7
20191017050906 50 0.0 0.0 0.00 0.00 0.00 79 1025.7
20191017045904 49 0.0 0.0 0.00 0.00 0.00 81 1025.7
20191017044904 49 0.0 0.0 0.00 0.00 0.00 80 1025.5
20191017043906 49 0.0 0.0 0.00 0.00 0.00 80 1025.4
20191017042905 49 0.0 0.0 0.00 0.00 0.00 80 1025.5
20191017041904 50 0.0 0.0 0.00 0.00 0.00 80 1025.4
20191017040903 50 0.0 0.0 0.00 0.00 0.00 80 1025.3
20191017035904 49 0.0 0.0 0.00 0.00 0.00 82 1025.3
20191017034904 49 0.0 0.0 0.00 0.00 0.00 81 1025.5
20191017033904 50 0.0 0.0 0.00 0.00 0.00 80 1025.4
20191017032904 50 0.0 0.0 0.00 0.00 0.00 79 1025.3
20191017031904 50 0.0 0.0 0.00 0.00 0.00 78 1025.2
20191017030904 50 0.0 0.0 0.00 0.00 0.00 79 1025.2
20191017025904 49 0.0 0.0 0.00 0.00 0.00 81 1025.2
20191017024904 50 0.0 0.0 0.00 0.00 0.00 78 1025.1
20191017023904 50 0.0 0.0 0.00 0.00 0.00 80 1025.2
20191017022904 51 0.0 0.0 0.00 0.00 0.00 78 1025.0
20191017021904 51 0.0 0.0 0.00 0.00 0.00 78 1025.0
20191017020904 51 0.0 0.0 0.00 0.00 0.00 77 1024.9
20191017015905 51 0.0 0.0 0.00 0.00 0.00 78 1025.0
20191017014904 51 0.0 0.0 0.00 0.00 0.00 79 1025.0
20191017013904 52 0.0 0.0 0.00 0.00 0.00 76 1025.1
20191017012903 52 0.0 0.0 0.00 0.00 0.00 77 1025.0
20191017011905 52 0.0 0.0 0.00 0.00 0.00 77 1025.0
20191017010905 52 0.0 0.0 0.00 0.00 0.00 76 1025.0
20191017005904 52 0.0 0.0 0.00 0.00 0.00 78 1024.9
20191017004904 52 0.0 0.0 0.00 0.00 0.00 78 1024.9
20191017003904 53 0.0 0.0 0.00 0.00 0.00 77 1025.0
20191017002904 53 0.0 0.0 0.00 0.00 0.00 77 1024.9
20191017001904 53 0.0 0.0 0.00 0.00 0.00 78 1025.0
20191017000904 53 0.0 0.0 0.00 0.00 0.00 79 1024.9
20191016235904 53 0.0 0.0 0.00 0.00 0.00 78 1025.0
20191016234904 53 0.0 0.0 0.00 0.00 0.00 78 1024.9
20191016233904 54 0.0 0.0 0.00 0.00 0.00 78 1024.9
20191016232904 54 0.0 0.0 0.00 0.00 0.00 77 1024.8
20191016231904 53 0.0 0.0 0.00 0.00 0.00 78 1024.6
20191016230904 54 0.0 0.0 0.00 0.00 0.00 78 1024.5
20191016225904 54 0.0 0.0 0.00 0.00 0.00 78 1024.5
20191016224904 54 0.0 0.0 0.00 0.00 0.00 79 1024.5
20191016223905 52 0.0 0.0 0.00 0.00 0.00 79 1024.4
20191016222904 52 0.0 0.0 0.00 0.00 0.00 79 1024.4
20191016221905 50 0.0 0.0 0.00 0.00 0.00 79 1024.5
20191016220904 50 0.0 0.0 0.00 0.00 0.00 80 1024.3
20191016215905 49 0.0 0.0 0.00 0.00 0.00 79 1024.2
20191016214904 52 0.0 0.0 0.00 0.00 0.00 74 1024.2
20191016213905 53 0.0 0.0 0.00 0.00 0.00 74 1024.2
20191016212905 53 0.0 0.0 0.00 0.00 0.00 76 1024.2
20191016211904 53 0.0 0.0 0.00 0.00 0.00 74 1024.2
20191016210904 55 0.0 0.0 0.00 0.00 0.00 74 1024.2
20191016205904 56 0.0 0.0 0.00 0.00 0.00 72 1024.2
20191016204904 58 0.0 0.0 0.00 0.00 0.00 69 1024.1
20191016203904 59 0.0 0.0 0.00 0.00 0.00 69 1024.2
20191016202904 59 0.0 0.0 0.00 0.00 0.00 68 1024.2
20191016201904 59 0.0 0.0 0.00 0.00 0.00 67 1024.1
20191016200904 59 0.0 0.0 0.00 0.00 0.00 68 1023.9
20191016195904 59 0.0 0.0 0.00 0.00 0.00 67 1023.8
20191016194904 60 0.0 0.0 0.00 0.00 0.00 65 1023.6
20191016193904 60 0.0 0.0 0.00 0.00 0.00 66 1023.6
20191016192903 61 0.0 0.0 0.00 0.00 0.00 66 1023.5
20191016191904 61 0.0 0.0 0.00 0.00 0.00 66 1023.4
20191016190904 60 0.0 0.0 0.00 0.00 0.00 67 1023.4
20191016185905 61 0.0 0.0 0.00 0.00 0.00 68 1023.4
20191016184904 61 0.0 0.0 0.00 0.00 0.00 67 1023.2
20191016183904 62 0.0 0.0 0.00 0.00 0.00 67 1022.9
20191016182904 62 0.0 0.0 0.00 0.00 0.00 66 1022.9
20191016181904 62 0.0 0.0 0.00 0.00 0.00 66 1022.7
20191016180904 62 0.0 0.0 0.00 0.00 0.00 66 1022.7
20191016175905 62 0.0 0.0 0.00 0.00 0.00 65 1022.5
20191016174904 62 0.0 0.0 0.00 0.00 0.00 65 1022.4
20191016173904 63 0.0 0.0 0.00 0.00 0.00 63 1022.6
20191016172905 63 0.0 0.0 0.00 0.00 0.00 62 1022.4
20191016171904 63 0.0 0.0 0.00 0.00 0.00 63 1022.5
20191016170904 63 0.0 0.0 0.00 0.00 0.00 63 1022.2
20191016165904 64 0.0 0.0 0.00 0.00 0.00 63 1022.1
20191016164904 64 0.0 0.0 0.00 0.00 0.00 64 1022.0
20191016163904 65 0.0 0.0 0.00 0.00 0.00 61 1021.9
20191016162904 66 0.0 0.0 0.00 0.00 0.00 59 1021.7
20191016161905 67 0.0 0.0 0.00 0.00 0.00 59 1021.4
20191016160904 67 0.0 0.0 0.00 0.00 0.00 57 1021.3
20191016155904 68 0.0 0.0 0.00 0.00 0.00 55 1021.2
20191016154904 67 0.0 0.0 0.00 0.00 0.00 57 1020.8
20191016153904 68 0.0 0.0 0.00 0.00 0.00 56 1020.7
20191016152905 68 0.0 0.0 0.00 0.00 0.00 56 1020.6
20191016151905 69 0.0 0.0 0.00 0.00 0.00 56 1020.6